TimeEST,TemperatureF,Dew PointF,Humidity,Sea Level PressureIn,VisibilityMPH,Wind Direction,Wind SpeedMPH,Gust SpeedMPH,PrecipitationIn,Events,Conditions,WindDirDegrees,DateUTC
12:15 AM,28.4,24.8,86,29.64,10.0,SW,4.6,-,N/A,,Mostly Cloudy,230,2013-01-01 05:15:00
12:35 AM,28.4,26.6,93,29.62,10.0,SW,5.8,-,N/A,,Overcast,220,2013-01-01 05:35:00
1:15 AM,30.2,26.6,86,29.60,10.0,SSW,9.2,-,N/A,,Overcast,210,2013-01-01 06:15:00
1:35 AM,30.2,26.6,86,29.60,10.0,SW,9.2,-,N/A,,Overcast,230,2013-01-01 06:35:00
1:55 AM,30.2,26.6,86,29.60,10.0,SW,6.9,-,N/A,,Overcast,220,2013-01-01 06:55:00
2:15 AM,30.2,26.6,86,29.59,10.0,SW,6.9,-,N/A,,Overcast,220,2013-01-01 07:15:00
2:35 AM,30.2,28.4,93,29.59,10.0,WSW,6.9,-,N/A,,Overcast,240,2013-01-01 07:35:00
2:55 AM,30.2,28.4,93,29.58,10.0,WSW,5.8,-,N/A,,Overcast,250,2013-01-01 07:55:00
3:15 AM,30.2,26.6,86,29.58,10.0,WSW,5.8,-,N/A,,Overcast,240,2013-01-01 08:15:00
3:55 AM,30.2,26.6,86,29.57,10.0,West,4.6,-,N/A,,Overcast,260,2013-01-01 08:55:00
4:15 AM,28.4,26.6,93,29.57,10.0,West,4.6,-,N/A,,Overcast,260,2013-01-01 09:15:00
4:35 AM,28.4,26.6,93,29.56,10.0,WSW,4.6,-,N/A,,Overcast,250,2013-01-01 09:35:00
5:15 AM,28.4,26.6,93,29.56,10.0,West,3.5,-,N/A,,Mostly Cloudy,260,2013-01-01 10:15:00
5:35 AM,28.4,24.8,86,29.56,10.0,Calm,Calm,-,N/A,,Mostly Cloudy,0,2013-01-01 10:35:00
5:55 AM,28.4,26.6,93,29.57,10.0,WSW,3.5,-,N/A,,Mostly Cloudy,240,2013-01-01 10:55:00
6:15 AM,28.4,26.6,93,29.58,10.0,Calm,Calm,-,N/A,,Overcast,0,2013-01-01 11:15:00
6:35 AM,26.6,26.6,100,29.58,10.0,West,3.5,-,N/A,,Overcast,280,2013-01-01 11:35:00
6:55 AM,28.4,26.6,93,29.58,10.0,West,4.6,-,N/A,,Mostly Cloudy,270,2013-01-01 11:55:00
7:15 AM,28.4,26.6,93,29.59,10.0,West,5.8,-,N/A,,Mostly Cloudy,270,2013-01-01 12:15:00
7:35 AM,28.4,26.6,93,29.59,10.0,West,5.8,-,N/A,,Scattered Clouds,260,2013-01-01 12:35:00
7:56 AM,28.4,26.6,93,29.60,10.0,West,6.9,-,N/A,,Clear,270,2013-01-01 12:56:00
8:15 AM,30.2,26.6,86,29.60,10.0,West,9.2,-,N/A,,Clear,270,2013-01-01 13:15:00
8:35 AM,32.0,26.6,80,29.61,10.0,WNW,4.6,-,N/A,,Clear,290,2013-01-01 13:35:00
8:55 AM,32.0,24.8,75,29.62,10.0,WNW,6.9,-,N/A,,Partly Cloudy,290,2013-01-01 13:55:00
9:15 AM,33.8,24.8,70,29.62,10.0,West,10.4,16.1,N/A,,Clear,270,2013-01-01 14:15:00
9:35 AM,33.8,21.2,60,29.62,10.0,WNW,10.4,20.7,N/A,,Partly Cloudy,300,2013-01-01 14:35:00
9:55 AM,32.0,15.8,51,29.62,10.0,West,15.0,25.3,N/A,,Clear,280,2013-01-01 14:55:00
10:15 AM,32.0,14.0,48,29.62,10.0,WNW,11.5,23.0,N/A,,Clear,290,2013-01-01 15:15:00
10:35 AM,32.0,15.8,51,29.62,10.0,WNW,8.1,20.7,N/A,,Clear,290,2013-01-01 15:35:00
10:55 AM,33.8,14.0,44,29.63,10.0,NW,9.2,19.6,N/A,,Clear,310,2013-01-01 15:55:00
11:15 AM,33.8,15.8,48,29.62,10.0,WNW,10.4,-,N/A,,Clear,290,2013-01-01 16:15:00
11:35 AM,32.0,12.2,44,29.61,10.0,West,13.8,20.7,N/A,,Clear,270,2013-01-01 16:35:00
11:55 AM,32.0,15.8,51,29.62,10.0,West,11.5,20.7,N/A,,Clear,280,2013-01-01 16:55:00
12:15 PM,32.0,15.8,51,29.61,10.0,WNW,11.5,18.4,N/A,,Partly Cloudy,290,2013-01-01 17:15:00
12:35 PM,30.2,15.8,55,29.61,10.0,West,10.4,18.4,N/A,,Scattered Clouds,280,2013-01-01 17:35:00
12:55 PM,30.2,15.8,55,29.61,10.0,WNW,16.1,20.7,N/A,,Partly Cloudy,300,2013-01-01 17:55:00
1:15 PM,28.4,10.4,47,29.62,10.0,WNW,17.3,24.2,N/A,,Partly Cloudy,300,2013-01-01 18:15:00
1:35 PM,28.4,10.4,47,29.63,10.0,NW,15.0,24.2,N/A,,Clear,310,2013-01-01 18:35:00
1:55 PM,26.6,8.6,47,29.64,10.0,NW,11.5,23.0,N/A,,Clear,310,2013-01-01 18:55:00
2:15 PM,26.6,8.6,47,29.64,10.0,WNW,8.1,19.6,N/A,,Clear,300,2013-01-01 19:15:00
2:35 PM,24.8,8.6,50,29.64,10.0,WNW,13.8,23.0,N/A,,Clear,300,2013-01-01 19:35:00
2:55 PM,24.8,6.8,46,29.66,10.0,NW,10.4,27.6,N/A,,Clear,310,2013-01-01 19:55:00
3:15 PM,21.2,6.8,54,29.66,10.0,NW,9.2,23.0,N/A,,Clear,320,2013-01-01 20:15:00
3:35 PM,21.2,6.8,54,29.66,10.0,WNW,6.9,-,N/A,,Clear,300,2013-01-01 20:35:00
3:56 PM,19.4,6.8,58,29.67,10.0,NW,10.4,20.7,N/A,,Clear,310,2013-01-01 20:56:00
4:15 PM,19.4,6.8,58,29.67,10.0,NW,6.9,-,N/A,,Clear,310,2013-01-01 21:15:00
4:35 PM,17.6,6.8,63,29.68,10.0,NW,9.2,-,N/A,,Clear,310,2013-01-01 21:35:00
5:15 PM,17.6,6.8,63,29.69,10.0,WNW,5.8,-,N/A,,Clear,290,2013-01-01 22:15:00
5:35 PM,15.8,6.8,68,29.70,10.0,WNW,5.8,-,N/A,,Clear,290,2013-01-01 22:35:00
6:15 PM,15.8,6.8,68,29.71,10.0,West,8.1,17.3,N/A,,Clear,280,2013-01-01 23:15:00
6:35 PM,15.8,6.8,68,29.72,10.0,WNW,10.4,18.4,N/A,,Clear,290,2013-01-01 23:35:00
6:55 PM,15.8,5.0,62,29.73,10.0,WNW,9.2,17.3,N/A,,Clear,290,2013-01-01 23:55:00
7:15 PM,14.0,3.2,62,29.73,10.0,WNW,13.8,27.6,N/A,,Clear,290,2013-01-02 00:15:00
7:35 PM,12.2,3.2,67,29.73,10.0,WNW,17.3,25.3,N/A,,Clear,290,2013-01-02 00:35:00
7:55 PM,12.2,3.2,67,29.74,10.0,WNW,18.4,28.8,N/A,,Clear,290,2013-01-02 00:55:00
8:15 PM,12.2,3.2,67,29.76,10.0,WNW,15.0,25.3,N/A,,Clear,300,2013-01-02 01:15:00
8:35 PM,12.2,3.2,67,29.76,10.0,WNW,12.7,21.9,N/A,,Clear,290,2013-01-02 01:35:00
8:55 PM,10.4,1.4,67,29.76,10.0,WNW,16.1,25.3,N/A,,Clear,290,2013-01-02 01:55:00
9:15 PM,10.4,1.4,67,29.77,10.0,WNW,11.5,24.2,N/A,,Clear,290,2013-01-02 02:15:00
9:35 PM,10.4,3.2,73,29.77,10.0,WNW,10.4,17.3,N/A,,Clear,290,2013-01-02 02:35:00
9:55 PM,10.4,3.2,73,29.77,10.0,West,9.2,-,N/A,,Clear,280,2013-01-02 02:55:00
10:15 PM,8.6,1.4,73,29.78,10.0,West,9.2,-,N/A,,Clear,270,2013-01-02 03:15:00
10:35 PM,8.6,3.2,79,29.78,10.0,West,6.9,-,N/A,,Clear,270,2013-01-02 03:35:00
10:55 PM,8.6,3.2,79,29.78,10.0,West,6.9,-,N/A,,Clear,270,2013-01-02 03:55:00
11:15 PM,8.6,3.2,79,29.79,10.0,West,8.1,-,N/A,,Clear,270,2013-01-02 04:15:00
11:35 PM,8.6,1.4,73,29.79,10.0,West,10.4,-,N/A,,Clear,270,2013-01-02 04:35:00
11:55 PM,8.6,1.4,73,29.79,10.0,West,8.1,-,N/A,,Clear,270,2013-01-02 04:55:00